sensor_id;sensor_type;location;lat;lon;timestamp;pressure;altitude;pressure_sealevel;temperature;humidity
60479;BME280;46321;48.398;11.754;2023-03-02T00:01:25;96581.56;;;1.08;70.14
60479;BME280;46321;48.398;11.754;2023-03-02T00:03:52;96581.53;;;0.97;70.67
60479;BME280;46321;48.398;11.754;2023-03-02T00:06:18;96575.59;;;0.95;70.62
60479;BME280;46321;48.398;11.754;2023-03-02T00:08:43;96583.19;;;0.98;70.60
60479;BME280;46321;48.398;11.754;2023-03-02T00:11:09;96582.69;;;0.93;70.79
60479;BME280;46321;48.398;11.754;2023-03-02T00:13:37;96595.19;;;1.00;70.21
60479;BME280;46321;48.398;11.754;2023-03-02T00:16:02;96589.25;;;0.98;70.39
60479;BME280;46321;48.398;11.754;2023-03-02T00:18:28;96579.50;;;0.89;70.98
60479;BME280;46321;48.398;11.754;2023-03-02T00:20:53;96581.97;;;0.90;70.65
60479;BME280;46321;48.398;11.754;2023-03-02T00:23:18;96575.72;;;0.93;70.21
60479;BME280;46321;48.398;11.754;2023-03-02T00:25:44;96572.22;;;0.81;70.70
60479;BME280;46321;48.398;11.754;2023-03-02T00:28:09;96579.25;;;0.92;70.75
60479;BME280;46321;48.398;11.754;2023-03-02T00:30:36;96574.16;;;0.90;70.57
60479;BME280;46321;48.398;11.754;2023-03-02T00:33:02;96574.63;;;0.84;70.38
60479;BME280;46321;48.398;11.754;2023-03-02T00:35:27;96573.19;;;0.80;70.74
60479;BME280;46321;48.398;11.754;2023-03-02T00:37:52;96578.22;;;0.70;71.42
60479;BME280;46321;48.398;11.754;2023-03-02T00:40:18;96577.03;;;0.74;71.02
60479;BME280;46321;48.398;11.754;2023-03-02T00:42:43;96576.78;;;0.66;71.26
60479;BME280;46321;48.398;11.754;2023-03-02T00:45:09;96579.38;;;0.66;71.47
60479;BME280;46321;48.398;11.754;2023-03-02T00:47:35;96576.91;;;0.64;71.57
60479;BME280;46321;48.398;11.754;2023-03-02T00:50:01;96577.94;;;0.62;71.58
60479;BME280;46321;48.398;11.754;2023-03-02T00:52:31;96576.19;;;0.62;71.26
60479;BME280;46321;48.398;11.754;2023-03-02T00:54:56;96572.47;;;0.53;72.03
60479;BME280;46321;48.398;11.754;2023-03-02T00:57:22;96573.25;;;0.54;71.89
60479;BME280;46321;48.398;11.754;2023-03-02T00:59:47;96567.06;;;0.43;72.27
60479;BME280;46321;48.398;11.754;2023-03-02T01:02:12;96560.75;;;0.59;71.97
60479;BME280;46321;48.398;11.754;2023-03-02T01:04:40;96573.56;;;0.62;71.35
60479;BME280;46321;48.398;11.754;2023-03-02T01:07:16;96566.09;;;0.57;71.82
60479;BME280;46321;48.398;11.754;2023-03-02T01:09:43;96562.31;;;0.62;71.97
60479;BME280;46321;48.398;11.754;2023-03-02T01:12:09;96556.19;;;0.50;72.67
60479;BME280;46321;48.398;11.754;2023-03-02T01:14:40;96552.22;;;0.57;72.11
60479;BME280;46321;48.398;11.754;2023-03-02T01:17:06;96552.66;;;0.51;72.70
60479;BME280;46321;48.398;11.754;2023-03-02T01:19:32;96550.06;;;0.51;72.34
60479;BME280;46321;48.398;11.754;2023-03-02T01:21:57;96543.41;;;0.47;72.56
60479;BME280;46321;48.398;11.754;2023-03-02T01:24:23;96539.25;;;0.44;72.73
60479;BME280;46321;48.398;11.754;2023-03-02T01:26:48;96543.63;;;0.43;72.59
60479;BME280;46321;48.398;11.754;2023-03-02T01:29:14;96538.41;;;0.43;72.69
60479;BME280;46321;48.398;11.754;2023-03-02T01:31:39;96534.63;;;0.48;72.70
60479;BME280;46321;48.398;11.754;2023-03-02T01:34:04;96534.69;;;0.34;73.08
60479;BME280;46321;48.398;11.754;2023-03-02T01:36:29;96530.59;;;0.43;72.84
60479;BME280;46321;48.398;11.754;2023-03-02T01:38:55;96530.53;;;0.56;72.43
60479;BME280;46321;48.398;11.754;2023-03-02T01:41:20;96531.19;;;0.47;72.61
60479;BME280;46321;48.398;11.754;2023-03-02T01:43:46;96519.84;;;0.48;72.63
60479;BME280;46321;48.398;11.754;2023-03-02T01:46:22;96522.66;;;0.70;72.00
60479;BME280;46321;48.398;11.754;2023-03-02T01:49:04;96512.41;;;0.79;71.47
60479;BME280;46321;48.398;11.754;2023-03-02T01:51:43;96511.34;;;0.82;71.58
60479;BME280;46321;48.398;11.754;2023-03-02T01:54:11;96517.72;;;0.78;71.77
60479;BME280;46321;48.398;11.754;2023-03-02T01:56:42;96507.06;;;0.81;71.63
60479;BME280;46321;48.398;11.754;2023-03-02T01:59:11;96508.66;;;0.95;71.15
60479;BME280;46321;48.398;11.754;2023-03-02T02:01:40;96503.56;;;0.94;71.03
60479;BME280;46321;48.398;11.754;2023-03-02T02:04:07;96508.50;;;0.85;71.54
60479;BME280;46321;48.398;11.754;2023-03-02T02:06:38;96509.44;;;0.84;71.34
60479;BME280;46321;48.398;11.754;2023-03-02T02:09:07;96503.41;;;0.84;71.65
60479;BME280;46321;48.398;11.754;2023-03-02T02:11:33;96506.25;;;0.92;71.43
60479;BME280;46321;48.398;11.754;2023-03-02T02:13:59;96507.53;;;0.75;71.95
60479;BME280;46321;48.398;11.754;2023-03-02T02:16:27;96502.53;;;0.47;73.10
60479;BME280;46321;48.398;11.754;2023-03-02T02:18:53;96499.94;;;0.47;73.43
60479;BME280;46321;48.398;11.754;2023-03-02T02:21:20;96494.72;;;0.47;73.25
60479;BME280;46321;48.398;11.754;2023-03-02T02:24:12;96503.16;;;0.51;73.44
60479;BME280;46321;48.398;11.754;2023-03-02T02:26:44;96492.38;;;0.44;73.70
60479;BME280;46321;48.398;11.754;2023-03-02T02:29:15;96483.59;;;0.45;74.04
60479;BME280;46321;48.398;11.754;2023-03-02T02:31:56;96482.53;;;0.48;73.80
60479;BME280;46321;48.398;11.754;2023-03-02T02:34:40;96485.59;;;0.41;74.46
60479;BME280;46321;48.398;11.754;2023-03-02T02:37:32;96491.19;;;0.24;75.45
60479;BME280;46321;48.398;11.754;2023-03-02T02:39:58;96488.91;;;0.43;75.48
60479;BME280;46321;48.398;11.754;2023-03-02T02:42:34;96485.09;;;0.36;75.22
60479;BME280;46321;48.398;11.754;2023-03-02T02:45:04;96488.09;;;0.18;76.11
60479;BME280;46321;48.398;11.754;2023-03-02T02:47:31;96476.59;;;-0.04;77.43
60479;BME280;46321;48.398;11.754;2023-03-02T02:49:57;96473.47;;;-0.09;77.48
60479;BME280;46321;48.398;11.754;2023-03-02T02:52:24;96475.44;;;0.01;77.64
60479;BME280;46321;48.398;11.754;2023-03-02T02:54:53;96472.56;;;-0.08;77.96
60479;BME280;46321;48.398;11.754;2023-03-02T02:57:21;96474.00;;;-0.04;77.86
60479;BME280;46321;48.398;11.754;2023-03-02T02:59:54;96479.22;;;-0.04;77.55
60479;BME280;46321;48.398;11.754;2023-03-02T03:02:23;96471.47;;;0.08;77.71
60479;BME280;46321;48.398;11.754;2023-03-02T03:04:50;96465.34;;;0.09;77.70
60479;BME280;46321;48.398;11.754;2023-03-02T03:07:21;96478.75;;;0.03;77.88
60479;BME280;46321;48.398;11.754;2023-03-02T03:09:52;96467.94;;;-0.04;77.95
60479;BME280;46321;48.398;11.754;2023-03-02T03:12:21;96476.94;;;0.16;77.86
60479;BME280;46321;48.398;11.754;2023-03-02T03:14:49;96474.59;;;0.13;77.97
60479;BME280;46321;48.398;11.754;2023-03-02T03:17:15;96466.25;;;0.08;77.74
60479;BME280;46321;48.398;11.754;2023-03-02T03:19:42;96469.91;;;0.05;77.50
60479;BME280;46321;48.398;11.754;2023-03-02T03:22:08;96468.97;;;0.06;77.86
60479;BME280;46321;48.398;11.754;2023-03-02T03:24:38;96467.94;;;0.09;77.45
60479;BME280;46321;48.398;11.754;2023-03-02T03:27:05;96462.63;;;0.10;77.63
60479;BME280;46321;48.398;11.754;2023-03-02T03:29:32;96456.63;;;-0.03;78.31
60479;BME280;46321;48.398;11.754;2023-03-02T03:32:00;96459.50;;;0.05;78.21
60479;BME280;46321;48.398;11.754;2023-03-02T03:34:27;96462.44;;;0.01;78.72
60479;BME280;46321;48.398;11.754;2023-03-02T03:36:53;96454.00;;;-0.03;78.88
60479;BME280;46321;48.398;11.754;2023-03-02T03:39:19;96457.66;;;-0.06;79.09
60479;BME280;46321;48.398;11.754;2023-03-02T03:41:45;96459.16;;;-0.15;79.02
60479;BME280;46321;48.398;11.754;2023-03-02T03:44:10;96463.84;;;-0.20;79.71
60479;BME280;46321;48.398;11.754;2023-03-02T03:46:36;96463.06;;;-0.09;79.34
60479;BME280;46321;48.398;11.754;2023-03-02T03:49:02;96458.72;;;-0.08;79.15
60479;BME280;46321;48.398;11.754;2023-03-02T03:51:27;96460.06;;;-0.03;79.12
60479;BME280;46321;48.398;11.754;2023-03-02T03:53:54;96461.25;;;0.05;78.66
60479;BME280;46321;48.398;11.754;2023-03-02T03:56:27;96459.44;;;-0.06;78.55
60479;BME280;46321;48.398;11.754;2023-03-02T03:58:52;96458.25;;;-0.02;78.50
60479;BME280;46321;48.398;11.754;2023-03-02T04:01:31;96456.00;;;-0.07;78.75
60479;BME280;46321;48.398;11.754;2023-03-02T04:03:59;96453.63;;;-0.10;78.83
60479;BME280;46321;48.398;11.754;2023-03-02T04:06:24;96463.50;;;-0.15;79.26
60479;BME280;46321;48.398;11.754;2023-03-02T04:08:49;96470.72;;;-0.19;79.55
60479;BME280;46321;48.398;11.754;2023-03-02T04:11:15;96472.03;;;-0.13;79.48
60479;BME280;46321;48.398;11.754;2023-03-02T04:13:40;96459.44;;;-0.06;79.16
60479;BME280;46321;48.398;11.754;2023-03-02T04:16:05;96457.88;;;-0.09;79.22
60479;BME280;46321;48.398;11.754;2023-03-02T04:18:31;96457.88;;;-0.09;79.09
60479;BME280;46321;48.398;11.754;2023-03-02T04:20:56;96456.50;;;-0.02;79.18
60479;BME280;46321;48.398;11.754;2023-03-02T04:23:21;96460.06;;;-0.03;78.54
60479;BME280;46321;48.398;11.754;2023-03-02T04:25:47;96460.47;;;-0.09;78.91
60479;BME280;46321;48.398;11.754;2023-03-02T04:28:12;96459.25;;;-0.16;78.89
60479;BME280;46321;48.398;11.754;2023-03-02T04:30:37;96457.50;;;-0.29;79.51
60479;BME280;46321;48.398;11.754;2023-03-02T04:33:02;96452.06;;;-0.13;79.43
60479;BME280;46321;48.398;11.754;2023-03-02T04:35:28;96454.53;;;-0.11;79.46
60479;BME280;46321;48.398;11.754;2023-03-02T04:37:53;96449.69;;;-0.16;79.28
60479;BME280;46321;48.398;11.754;2023-03-02T04:40:19;96457.59;;;-0.17;79.53
60479;BME280;46321;48.398;11.754;2023-03-02T04:42:45;96455.00;;;-0.17;79.71
60479;BME280;46321;48.398;11.754;2023-03-02T04:45:11;96450.41;;;-0.14;79.80
60479;BME280;46321;48.398;11.754;2023-03-02T04:47:37;96448.03;;;-0.17;79.69
60479;BME280;46321;48.398;11.754;2023-03-02T04:50:03;96446.97;;;-0.14;79.49
60479;BME280;46321;48.398;11.754;2023-03-02T04:52:28;96450.41;;;-0.14;79.67
60479;BME280;46321;48.398;11.754;2023-03-02T04:54:54;96452.06;;;-0.13;79.53
60479;BME280;46321;48.398;11.754;2023-03-02T04:57:19;96447.41;;;-0.20;79.95
60479;BME280;46321;48.398;11.754;2023-03-02T04:59:44;96453.88;;;-0.26;80.16
60479;BME280;46321;48.398;11.754;2023-03-02T05:02:10;96453.22;;;-0.17;79.92
60479;BME280;46321;48.398;11.754;2023-03-02T05:04:35;96448.22;;;-0.07;79.80
60479;BME280;46321;48.398;11.754;2023-03-02T05:07:00;96456.94;;;-0.08;79.57
60479;BME280;46321;48.398;11.754;2023-03-02T05:09:26;96451.41;;;-0.03;79.31
60479;BME280;46321;48.398;11.754;2023-03-02T05:11:55;96440.72;;;-0.12;79.68
60479;BME280;46321;48.398;11.754;2023-03-02T05:14:21;96442.16;;;-0.07;79.58
60479;BME280;46321;48.398;11.754;2023-03-02T05:16:46;96443.53;;;-0.15;79.92
60479;BME280;46321;48.398;11.754;2023-03-02T05:19:12;96443.97;;;-0.21;80.35
60479;BME280;46321;48.398;11.754;2023-03-02T05:21:38;96439.09;;;-0.26;80.25
60479;BME280;46321;48.398;11.754;2023-03-02T05:24:04;96438.25;;;-0.26;80.21
60479;BME280;46321;48.398;11.754;2023-03-02T05:26:29;96445.03;;;-0.24;80.36
60479;BME280;46321;48.398;11.754;2023-03-02T05:28:55;96438.13;;;-0.25;81.07
60479;BME280;46321;48.398;11.754;2023-03-02T05:31:26;96440.53;;;-0.21;80.07
60479;BME280;46321;48.398;11.754;2023-03-02T05:33:53;96446.25;;;-0.16;79.96
60479;BME280;46321;48.398;11.754;2023-03-02T05:36:18;96444.97;;;-0.10;80.00
60479;BME280;46321;48.398;11.754;2023-03-02T05:38:43;96444.25;;;-0.13;79.58
60479;BME280;46321;48.398;11.754;2023-03-02T05:41:09;96448.63;;;-0.13;79.91
60479;BME280;46321;48.398;11.754;2023-03-02T05:43:34;96449.91;;;-0.19;79.73
60479;BME280;46321;48.398;11.754;2023-03-02T05:46:00;96450.94;;;-0.21;80.31
60479;BME280;46321;48.398;11.754;2023-03-02T05:48:27;96463.22;;;-0.24;80.25
60479;BME280;46321;48.398;11.754;2023-03-02T05:50:53;96460.09;;;-0.16;79.59
60479;BME280;46321;48.398;11.754;2023-03-02T05:53:18;96456.34;;;-0.12;80.10
60479;BME280;46321;48.398;11.754;2023-03-02T05:55:43;96456.88;;;-0.19;80.28
60479;BME280;46321;48.398;11.754;2023-03-02T05:58:11;96464.03;;;-0.10;80.11
60479;BME280;46321;48.398;11.754;2023-03-02T06:00:38;96455.63;;;-0.14;80.06
60479;BME280;46321;48.398;11.754;2023-03-02T06:03:04;96450.75;;;-0.18;80.43
60479;BME280;46321;48.398;11.754;2023-03-02T06:05:29;96457.88;;;-0.09;79.66
60479;BME280;46321;48.398;11.754;2023-03-02T06:07:54;96461.16;;;0.06;79.86
60479;BME280;46321;48.398;11.754;2023-03-02T06:10:20;96464.69;;;0.05;79.52
60479;BME280;46321;48.398;11.754;2023-03-02T06:12:46;96462.72;;;0.09;79.50
60479;BME280;46321;48.398;11.754;2023-03-02T06:15:11;96461.97;;;0.20;79.49
60479;BME280;46321;48.398;11.754;2023-03-02T06:17:36;96459.75;;;0.27;79.07
60479;BME280;46321;48.398;11.754;2023-03-02T06:20:02;96465.72;;;0.40;78.55
60479;BME280;46321;48.398;11.754;2023-03-02T06:22:30;96471.91;;;0.51;78.35
60479;BME280;46321;48.398;11.754;2023-03-02T06:24:55;96463.50;;;0.59;78.25
60479;BME280;46321;48.398;11.754;2023-03-02T06:27:20;96463.81;;;0.67;77.98
60479;BME280;46321;48.398;11.754;2023-03-02T06:29:46;96471.63;;;0.78;77.77
60479;BME280;46321;48.398;11.754;2023-03-02T06:32:11;96469.91;;;0.90;77.73
60479;BME280;46321;48.398;11.754;2023-03-02T06:34:36;96474.28;;;1.01;77.04
60479;BME280;46321;48.398;11.754;2023-03-02T06:37:01;96473.13;;;1.17;76.90
60479;BME280;46321;48.398;11.754;2023-03-02T06:39:27;96472.22;;;1.30;76.81
60479;BME280;46321;48.398;11.754;2023-03-02T06:41:52;96474.47;;;1.46;75.98
60479;BME280;46321;48.398;11.754;2023-03-02T06:44:17;96459.66;;;1.58;75.63
60479;BME280;46321;48.398;11.754;2023-03-02T06:46:43;96465.56;;;1.71;75.06
60479;BME280;46321;48.398;11.754;2023-03-02T06:49:09;96469.00;;;1.83;74.21
60479;BME280;46321;48.398;11.754;2023-03-02T06:51:35;96463.03;;;2.04;73.98
60479;BME280;46321;48.398;11.754;2023-03-02T06:54:00;96469.63;;;2.20;72.82
60479;BME280;46321;48.398;11.754;2023-03-02T06:56:26;96479.91;;;2.33;72.56
60479;BME280;46321;48.398;11.754;2023-03-02T06:58:51;96474.44;;;2.48;72.18
60479;BME280;46321;48.398;11.754;2023-03-02T07:01:16;96481.97;;;2.62;71.85
60479;BME280;46321;48.398;11.754;2023-03-02T07:03:42;96473.44;;;2.82;71.07
60479;BME280;46321;48.398;11.754;2023-03-02T07:06:10;96476.38;;;3.10;70.21
60479;BME280;46321;48.398;11.754;2023-03-02T07:08:35;96475.09;;;3.26;69.47
60479;BME280;46321;48.398;11.754;2023-03-02T07:11:09;96478.56;;;3.58;69.22
60479;BME280;46321;48.398;11.754;2023-03-02T07:13:38;96475.50;;;3.94;68.20
60479;BME280;46321;48.398;11.754;2023-03-02T07:16:11;96460.56;;;4.26;67.36
60479;BME280;46321;48.398;11.754;2023-03-02T07:18:37;96477.41;;;4.63;66.19
60479;BME280;46321;48.398;11.754;2023-03-02T07:21:02;96471.88;;;4.76;64.83
60479;BME280;46321;48.398;11.754;2023-03-02T07:23:28;96479.88;;;4.94;63.72
60479;BME280;46321;48.398;11.754;2023-03-02T07:25:54;96477.75;;;5.18;62.49
60479;BME280;46321;48.398;11.754;2023-03-02T07:28:19;96477.63;;;5.19;62.37
60479;BME280;46321;48.398;11.754;2023-03-02T07:30:48;96483.22;;;5.44;61.99
60479;BME280;46321;48.398;11.754;2023-03-02T07:33:13;96477.41;;;5.79;60.54
60479;BME280;46321;48.398;11.754;2023-03-02T07:35:38;96472.81;;;6.19;60.51
60479;BME280;46321;48.398;11.754;2023-03-02T07:38:03;96481.94;;;6.61;59.38
60479;BME280;46321;48.398;11.754;2023-03-02T07:40:29;96480.53;;;6.85;57.53
60479;BME280;46321;48.398;11.754;2023-03-02T07:42:54;96483.06;;;7.22;57.38
60479;BME280;46321;48.398;11.754;2023-03-02T07:45:19;96479.69;;;7.30;55.28
60479;BME280;46321;48.398;11.754;2023-03-02T07:47:48;96471.34;;;7.70;54.50
60479;BME280;46321;48.398;11.754;2023-03-02T07:50:14;96475.91;;;7.94;55.21
60479;BME280;46321;48.398;11.754;2023-03-02T07:52:39;96481.16;;;8.38;53.21
60479;BME280;46321;48.398;11.754;2023-03-02T07:55:05;96480.88;;;8.74;52.11
60479;BME280;46321;48.398;11.754;2023-03-02T07:57:30;96481.25;;;8.19;51.88
60479;BME280;46321;48.398;11.754;2023-03-02T07:59:55;96481.06;;;8.64;52.80
60479;BME280;46321;48.398;11.754;2023-03-02T08:02:21;96483.16;;;9.44;51.06
60479;BME280;46321;48.398;11.754;2023-03-02T08:04:46;96483.19;;;9.36;49.69
60479;BME280;46321;48.398;11.754;2023-03-02T08:07:12;96483.72;;;8.98;49.56
60479;BME280;46321;48.398;11.754;2023-03-02T08:09:38;96489.13;;;8.63;50.79
60479;BME280;46321;48.398;11.754;2023-03-02T08:12:04;96497.16;;;8.44;50.39
60479;BME280;46321;48.398;11.754;2023-03-02T08:14:29;96488.91;;;8.56;50.61
60479;BME280;46321;48.398;11.754;2023-03-02T08:16:55;96479.06;;;9.08;50.24
60479;BME280;46321;48.398;11.754;2023-03-02T08:19:20;96494.09;;;8.82;49.37
60479;BME280;46321;48.398;11.754;2023-03-02T08:21:45;96489.66;;;8.91;49.92
60479;BME280;46321;48.398;11.754;2023-03-02T08:24:11;96484.66;;;8.63;49.86
60479;BME280;46321;48.398;11.754;2023-03-02T08:26:37;96483.88;;;8.79;49.74
60479;BME280;46321;48.398;11.754;2023-03-02T08:29:03;96474.97;;;9.88;49.13
60479;BME280;46321;48.398;11.754;2023-03-02T08:31:29;96477.09;;;10.24;47.51
60479;BME280;46321;48.398;11.754;2023-03-02T08:33:54;96471.13;;;10.62;46.06
60479;BME280;46321;48.398;11.754;2023-03-02T08:36:20;96470.81;;;10.25;46.15
60479;BME280;46321;48.398;11.754;2023-03-02T08:38:46;96474.25;;;11.28;44.94
60479;BME280;46321;48.398;11.754;2023-03-02T08:41:15;96470.06;;;10.95;44.99
60479;BME280;46321;48.398;11.754;2023-03-02T08:43:40;96477.72;;;11.29;44.53
60479;BME280;46321;48.398;11.754;2023-03-02T08:46:06;96472.81;;;11.86;43.61
60479;BME280;46321;48.398;11.754;2023-03-02T08:48:31;96471.44;;;11.75;42.96
60479;BME280;46321;48.398;11.754;2023-03-02T08:51:02;96482.41;;;11.87;43.00
60479;BME280;46321;48.398;11.754;2023-03-02T08:53:30;96474.53;;;12.09;42.41
60479;BME280;46321;48.398;11.754;2023-03-02T08:55:56;96478.41;;;11.91;41.67
60479;BME280;46321;48.398;11.754;2023-03-02T08:58:21;96464.56;;;11.96;42.63
60479;BME280;46321;48.398;11.754;2023-03-02T09:00:47;96476.78;;;12.43;41.94
60479;BME280;46321;48.398;11.754;2023-03-02T09:03:12;96463.88;;;12.40;42.36
60479;BME280;46321;48.398;11.754;2023-03-02T09:05:38;96467.84;;;12.88;40.71
60479;BME280;46321;48.398;11.754;2023-03-02T09:08:03;96462.88;;;12.41;40.77
60479;BME280;46321;48.398;11.754;2023-03-02T09:10:29;96460.72;;;12.95;40.34
60479;BME280;46321;48.398;11.754;2023-03-02T09:12:54;96460.94;;;13.51;39.59
60479;BME280;46321;48.398;11.754;2023-03-02T09:15:20;96482.91;;;13.09;39.43
60479;BME280;46321;48.398;11.754;2023-03-02T09:17:45;96481.31;;;13.66;39.30
60479;BME280;46321;48.398;11.754;2023-03-02T09:20:11;96470.28;;;13.40;38.77
60479;BME280;46321;48.398;11.754;2023-03-02T09:22:36;96469.84;;;13.36;39.16
60479;BME280;46321;48.398;11.754;2023-03-02T09:25:03;96478.03;;;13.13;39.45
60479;BME280;46321;48.398;11.754;2023-03-02T09:27:29;96479.03;;;13.34;39.39
60479;BME280;46321;48.398;11.754;2023-03-02T09:29:55;96473.50;;;14.56;37.65
60479;BME280;46321;48.398;11.754;2023-03-02T09:32:20;96476.56;;;14.52;36.63
60479;BME280;46321;48.398;11.754;2023-03-02T09:34:45;96469.72;;;15.13;35.83
60479;BME280;46321;48.398;11.754;2023-03-02T09:37:10;96472.53;;;15.79;35.03
60479;BME280;46321;48.398;11.754;2023-03-02T09:39:36;96467.38;;;15.77;34.92
60479;BME280;46321;48.398;11.754;2023-03-02T09:42:09;96476.38;;;15.97;34.72
60479;BME280;46321;48.398;11.754;2023-03-02T09:44:51;96483.78;;;15.88;34.35
60479;BME280;46321;48.398;11.754;2023-03-02T09:55:53;96467.50;;;18.59;31.56
60479;BME280;46321;48.398;11.754;2023-03-02T09:58:19;96463.59;;;17.87;31.54
60479;BME280;46321;48.398;11.754;2023-03-02T10:00:46;96470.34;;;18.08;31.10
60479;BME280;46321;48.398;11.754;2023-03-02T10:03:21;96468.41;;;18.15;31.21
60479;BME280;46321;48.398;11.754;2023-03-02T10:05:49;96475.59;;;18.22;30.35
60479;BME280;46321;48.398;11.754;2023-03-02T10:08:17;96470.16;;;18.90;29.97
60479;BME280;46321;48.398;11.754;2023-03-02T10:13:42;96473.22;;;19.06;29.42
60479;BME280;46321;48.398;11.754;2023-03-02T10:16:31;96460.91;;;19.53;29.72
60479;BME280;46321;48.398;11.754;2023-03-02T10:19:17;96459.16;;;19.59;28.48
60479;BME280;46321;48.398;11.754;2023-03-02T10:21:55;96458.25;;;18.55;29.51
60479;BME280;46321;48.398;11.754;2023-03-02T10:27:17;96465.91;;;18.82;29.54
60479;BME280;46321;48.398;11.754;2023-03-02T10:32:36;96456.34;;;19.65;28.58
60479;BME280;46321;48.398;11.754;2023-03-02T10:35:13;96458.59;;;20.34;27.65
60479;BME280;46321;48.398;11.754;2023-03-02T10:37:40;96457.94;;;21.02;26.69
60479;BME280;46321;48.398;11.754;2023-03-02T10:40:08;96456.38;;;21.07;26.65
60479;BME280;46321;48.398;11.754;2023-03-02T10:42:36;96449.25;;;22.87;25.70
60479;BME280;46321;48.398;11.754;2023-03-02T10:45:26;96459.22;;;22.86;24.38
60479;BME280;46321;48.398;11.754;2023-03-02T10:48:06;96453.44;;;22.00;24.99
60479;BME280;46321;48.398;11.754;2023-03-02T10:50:32;96453.63;;;21.76;25.56
60479;BME280;46321;48.398;11.754;2023-03-02T10:52:58;96453.56;;;22.10;25.41
60479;BME280;46321;48.398;11.754;2023-03-02T10:55:23;96446.13;;;23.33;24.83
60479;BME280;46321;48.398;11.754;2023-03-02T10:58:03;96443.88;;;23.58;23.91
60479;BME280;46321;48.398;11.754;2023-03-02T11:00:30;96437.84;;;23.07;24.27
60479;BME280;46321;48.398;11.754;2023-03-02T11:03:01;96436.22;;;22.79;24.61
60479;BME280;46321;48.398;11.754;2023-03-02T11:08:03;96453.06;;;21.16;25.83
60479;BME280;46321;48.398;11.754;2023-03-02T11:10:32;96443.16;;;20.88;26.59
60479;BME280;46321;48.398;11.754;2023-03-02T11:12:59;96443.19;;;20.58;26.95
60479;BME280;46321;48.398;11.754;2023-03-02T11:15:35;96437.75;;;19.88;28.09
60479;BME280;46321;48.398;11.754;2023-03-02T11:18:07;96426.78;;;21.41;26.23
60479;BME280;46321;48.398;11.754;2023-03-02T11:20:41;96431.84;;;22.45;25.99
60479;BME280;46321;48.398;11.754;2023-03-02T11:23:18;96427.97;;;22.91;24.11
60479;BME280;46321;48.398;11.754;2023-03-02T11:25:50;96425.47;;;22.56;24.44
60479;BME280;46321;48.398;11.754;2023-03-02T11:28:32;96421.25;;;22.65;24.86
60479;BME280;46321;48.398;11.754;2023-03-02T11:30:59;96405.69;;;23.98;23.91
60479;BME280;46321;48.398;11.754;2023-03-02T11:33:36;96413.72;;;23.33;24.10
60479;BME280;46321;48.398;11.754;2023-03-02T11:36:11;96413.72;;;23.33;23.77
60479;BME280;46321;48.398;11.754;2023-03-02T11:38:47;96407.41;;;21.44;25.62
60479;BME280;46321;48.398;11.754;2023-03-02T11:41:28;96406.44;;;21.90;26.24
60479;BME280;46321;48.398;11.754;2023-03-02T11:43:56;96412.91;;;20.98;25.78
60479;BME280;46321;48.398;11.754;2023-03-02T11:46:28;96402.38;;;20.79;26.60
60479;BME280;46321;48.398;11.754;2023-03-02T11:48:58;96399.19;;;20.06;28.35
60479;BME280;46321;48.398;11.754;2023-03-02T11:51:32;96406.56;;;18.67;30.11
60479;BME280;46321;48.398;11.754;2023-03-02T11:54:15;96415.25;;;17.25;31.44
60479;BME280;46321;48.398;11.754;2023-03-02T11:56:43;96402.97;;;16.20;34.20
60479;BME280;46321;48.398;11.754;2023-03-02T11:59:18;96405.50;;;16.01;34.91
60479;BME280;46321;48.398;11.754;2023-03-02T12:01:49;96404.25;;;15.37;35.25
60479;BME280;46321;48.398;11.754;2023-03-02T12:04:33;96390.53;;;16.00;35.20
60479;BME280;46321;48.398;11.754;2023-03-02T12:07:23;96393.63;;;15.10;35.48
60479;BME280;46321;48.398;11.754;2023-03-02T12:10:03;96397.56;;;15.07;36.34
60479;BME280;46321;48.398;11.754;2023-03-02T12:12:39;96397.81;;;14.02;37.41
60479;BME280;46321;48.398;11.754;2023-03-02T12:15:38;96398.44;;;14.11;37.19
60479;BME280;46321;48.398;11.754;2023-03-02T12:20:44;96392.78;;;13.43;39.39
60479;BME280;46321;48.398;11.754;2023-03-02T12:23:21;96389.03;;;13.59;39.33
60479;BME280;46321;48.398;11.754;2023-03-02T12:25:47;96389.59;;;13.97;38.80
60479;BME280;46321;48.398;11.754;2023-03-02T12:28:34;96397.78;;;13.24;40.07
60479;BME280;46321;48.398;11.754;2023-03-02T12:31:11;96394.31;;;13.24;40.44
60479;BME280;46321;48.398;11.754;2023-03-02T12:33:43;96394.88;;;13.48;40.69
60479;BME280;46321;48.398;11.754;2023-03-02T12:36:12;96388.84;;;13.32;40.08
60479;BME280;46321;48.398;11.754;2023-03-02T12:38:42;96391.13;;;13.42;39.79
60479;BME280;46321;48.398;11.754;2023-03-02T12:41:23;96383.09;;;13.28;41.02
60479;BME280;46321;48.398;11.754;2023-03-02T12:44:11;96376.25;;;13.48;40.06
60479;BME280;46321;48.398;11.754;2023-03-02T12:46:44;96376.19;;;13.70;39.71
60479;BME280;46321;48.398;11.754;2023-03-02T12:49:39;96385.97;;;12.98;39.82
60479;BME280;46321;48.398;11.754;2023-03-02T12:52:25;96381.31;;;12.78;40.74
60479;BME280;46321;48.398;11.754;2023-03-02T12:55:16;96385.97;;;12.98;40.65
60479;BME280;46321;48.398;11.754;2023-03-02T12:57:50;96379.78;;;13.26;41.11
60479;BME280;46321;48.398;11.754;2023-03-02T13:00:19;96376.50;;;13.24;41.37
60479;BME280;46321;48.398;11.754;2023-03-02T13:02:47;96370.38;;;13.17;40.72
60479;BME280;46321;48.398;11.754;2023-03-02T13:05:21;96376.72;;;13.23;41.19
60479;BME280;46321;48.398;11.754;2023-03-02T13:08:05;96370.97;;;13.55;40.95
60479;BME280;46321;48.398;11.754;2023-03-02T13:10:37;96373.75;;;13.39;41.06
60479;BME280;46321;48.398;11.754;2023-03-02T13:15:53;96369.72;;;13.50;39.61
60479;BME280;46321;48.398;11.754;2023-03-02T13:18:20;96370.63;;;13.65;39.88
60479;BME280;46321;48.398;11.754;2023-03-02T13:20:47;96370.94;;;13.12;40.44
60479;BME280;46321;48.398;11.754;2023-03-02T13:23:14;96377.06;;;13.13;41.45
60479;BME280;46321;48.398;11.754;2023-03-02T13:25:48;96380.75;;;13.12;41.43
60479;BME280;46321;48.398;11.754;2023-03-02T13:28:27;96366.44;;;13.13;41.14